Terminal Aerodrome Forecast
Issued by NWS Albany, NY

Current Version | Previous Version | Text Only | Print | Product List | Glossary On
Versions: 1 2 3 4 5 6 7 8 9 10 11 12 13 14 15 16 17 18 19
000
FTUS41 KALY 251914 AAA
TAFPOU
TAF AMD
KPOU 251914Z 2519/2618 16008G18KT P6SM SCT080
      TEMPO 2519/2522 19008KT BKN080
     FM260000 19005KT P6SM SCT100 BKN150
     FM261200 22007KT P6SM SCT080 BKN150=

USA.gov is the U.S. government's official web portal to all federal, state and local government web resources and services.